Historique des mesures à Cassis (13260), France
Quotidien Résumé Janvier 17, 2018 Unités:  US    Métrique   Métrique/US
« Précédent (Jour)
Suivant (Jour) »
Quotidien Hebdomadaire Mensuel Annuel Période au choix
  Maximum: Minimum: Moyenne:
Température: 32 °F 48.6 °F 52.5 °F
Point de rosée: 32 °F 28 °F 35.2 °F
Humidité: Humidity % 38 % 49 %
Vitesse du vent: WindSpeedKMH mph 0.0 mph 16.6 mph
Rafales: WindSpeedGustKMH mph - -
Vent:- - WSW
Pression: 0 in 29.7 in -
Précipitations: 0 in    
Historical Graphs
 
 
Mesures pour : Janvier 17, 2018
Heure Temperature Point de rosée Pression Vent Vitesse du vent Rafales Humidité Pluie (par heure) Conditions
32 °F 32 °F 0 in Calm     Humidity % 0 in SoftwareType W/m2
00:12 58.3 °F 48.6 °F 29.8 in NNW 5.5 mph 18.3 mph 70 % 0 in open2300-1.11 W/m2
01:12 58.1 °F 48 °F 29.7 in Calm   5.0 mph 69 % 0 in open2300-1.11 W/m2
02:12 57.9 °F 48.6 °F 29.7 in WNW 17.2 mph 17.2 mph 71 % 0 in open2300-1.11 W/m2
05:12 55.6 °F 45.1 °F 29.7 in WNW 14.0 mph 30.2 mph 68 % 0 in open2300-1.11 W/m2
06:12 55 °F 42.6 °F 29.7 in WNW 27.7 mph 30.2 mph 63 % 0 in open2300-1.11 W/m2
07:12 54.5 °F 39.6 °F 29.7 in WSW 32.0 mph 32.0 mph 57 % 0 in open2300-1.11 W/m2
08:12 53.2 °F 38.3 °F 29.8 in West 5.0 mph 23.3 mph 57 % 0 in open2300-1.11 W/m2
09:12 52.9 °F 37.6 °F 29.8 in NNW 15.4 mph 23.3 mph 56 % 0 in open2300-1.11 W/m2
10:12 52.3 °F 36.1 °F 29.8 in North 15.1 mph 33.8 mph 54 % 0 in open2300-1.11 W/m2
11:12 52.7 °F 35.1 °F 29.9 in NNW 16.9 mph 16.9 mph 51 % 0 in open2300-1.11 W/m2
12:12 54.1 °F 33.1 °F 29.9 in NNW 9.7 mph 16.9 mph 45 % 0 in open2300-1.11 W/m2
13:12 54 °F 31.8 °F 29.9 in NW 30.2 mph 30.2 mph 43 % 0 in open2300-1.11 W/m2
14:12 54.1 °F 31.5 °F 29.9 in WNW 25.3 mph 76.7 mph 42 % 0 in open2300-1.11 W/m2
15:12 54.1 °F 28.9 °F 29.9 in NNW 28.5 mph 30.2 mph 38 % 0 in open2300-1.11 W/m2
16:12 53.8 °F 28.6 °F 29.9 in WNW 23.8 mph 26.2 mph 38 % 0 in open2300-1.11 W/m2
17:12 52.5 °F 28.2 °F 29.9 in North 16.9 mph 16.9 mph 39 % 0 in open2300-1.11 W/m2
18:12 51.6 °F 29.1 °F 30 in North 11.6 mph 20.9 mph 42 % 0 in open2300-1.11 W/m2
19:12 51.1 °F 28.8 °F 30 in NW 11.9 mph 12.2 mph 42 % 0 in open2300-1.11 W/m2
20:12 50.2 °F 28.4 °F 30 in WNW 25.9 mph 25.9 mph 43 % 0 in open2300-1.11 W/m2
21:12 49.3 °F 28 °F 30.1 in North 14.0 mph 17.7 mph 44 % 0 in open2300-1.11 W/m2
23:12 48.6 °F 28.6 °F 30.1 in WNW 17.7 mph 19.8 mph 46 % 0 in open2300-1.11 W/m2
Observations météo à CASSIS
WU-History script by Weather Underground - 1 mb